Time;durP1;ratioP1;P1;durP2;ratioP2;P2;SDS_P1;SDS_P2;PMS_P1;PMS_P2;Temp;Humidity;BMP_temperature;BMP_pressure;BME280_temperature;BME280_humidity;BME280_pressure;Samples;Min_cycle;Max_cycle;Signal;HPM_P1;HPM_P2
2022/09/15 00:02:00;;;;;;;4.93;1.90;;;12.60;99.90;;;;;;4999092;28;20556;-82
2022/09/15 00:04:25;;;;;;;6.50;2.20;;;12.60;99.90;;;;;;5018695;28;20052;-82
2022/09/15 00:06:51;;;;;;;4.65;1.77;;;12.60;99.90;;;;;;5015510;28;20393;-82
2022/09/15 00:09:18;;;;;;;4.95;1.60;;;12.60;99.90;;;;;;5019606;28;20056;-82
2022/09/15 00:11:43;;;;;;;4.03;1.40;;;12.60;99.90;;;;;;5018934;28;20125;-82
2022/09/15 00:14:09;;;;;;;4.85;1.52;;;12.60;99.90;;;;;;5016070;28;20112;-81
2022/09/15 00:16:35;;;;;;;4.78;1.90;;;12.70;99.90;;;;;;5013424;28;20056;-81
2022/09/15 00:19:01;;;;;;;5.38;1.80;;;12.70;99.90;;;;;;5016031;28;20530;-82
2022/09/15 00:21:30;;;;;;;6.65;1.80;;;12.70;99.90;;;;;;5015122;28;20068;-81
2022/09/15 00:23:57;;;;;;;4.93;1.90;;;12.70;99.90;;;;;;4998879;28;20123;-82
2022/09/15 00:26:25;;;;;;;4.95;2.00;;;12.70;99.90;;;;;;5015799;28;20125;-81
2022/09/15 00:28:51;;;;;;;5.00;1.52;;;12.70;99.90;;;;;;5015278;28;20485;-81
2022/09/15 00:31:20;;;;;;;5.85;2.65;;;12.60;99.90;;;;;;4994671;28;20452;-82
2022/09/15 00:33:51;;;;;;;7.47;2.60;;;12.60;99.90;;;;;;5015466;28;20528;-82
2022/09/15 00:36:18;;;;;;;5.55;2.20;;;12.50;99.90;;;;;;5015330;28;20105;-82
2022/09/15 00:38:44;;;;;;;6.32;1.92;;;12.50;99.90;;;;;;5019724;28;20037;-82
2022/09/15 00:41:20;;;;;;;4.60;2.30;;;12.50;99.90;;;;;;5015597;28;20496;-82
2022/09/15 00:43:56;;;;;;;3.97;1.50;;;12.60;99.90;;;;;;5015151;28;20044;-82
2022/09/15 00:46:33;;;;;;;6.63;2.90;;;12.60;99.90;;;;;;5015638;28;20511;-82
2022/09/15 00:49:08;;;;;;;5.65;2.20;;;12.70;99.90;;;;;;5015316;28;20084;-82
2022/09/15 00:52:06;;;;;;;4.28;1.70;;;12.60;99.90;;;;;;5013957;28;20116;-81
2022/09/15 00:54:46;;;;;;;6.32;2.88;;;12.70;99.90;;;;;;5002733;28;20571;-82
2022/09/15 00:57:25;;;;;;;7.32;3.15;;;12.80;99.90;;;;;;5015041;28;20048;-82
2022/09/15 00:59:54;;;;;;;6.38;3.00;;;12.80;99.90;;;;;;5006577;28;20042;-82
2022/09/15 01:02:30;;;;;;;8.38;3.35;;;12.90;99.90;;;;;;4996094;28;20056;-81
2022/09/15 01:04:58;;;;;;;7.38;3.47;;;12.90;99.90;;;;;;5015263;28;20092;-82
2022/09/15 01:07:32;;;;;;;7.80;4.45;;;13.00;99.90;;;;;;5019056;28;20103;-82
2022/09/15 01:10:01;;;;;;;9.70;4.38;;;12.90;99.90;;;;;;5032984;28;20094;-82
2022/09/15 01:12:27;;;;;;;7.13;4.00;;;13.00;99.90;;;;;;5025695;28;20030;-82
2022/09/15 01:14:53;;;;;;;9.35;4.47;;;13.00;99.90;;;;;;4998600;28;20045;-82
2022/09/15 01:17:35;;;;;;;11.20;5.13;;;13.10;99.90;;;;;;5019286;28;20052;-82
2022/09/15 01:20:46;;;;;;;12.52;6.28;;;13.10;99.90;;;;;;5015393;28;20558;-82
2022/09/15 01:23:12;;;;;;;9.57;5.07;;;13.20;99.90;;;;;;4988832;28;20040;-82
2022/09/15 01:25:59;;;;;;;10.25;5.22;;;13.20;99.90;;;;;;5015025;28;20033;-82
2022/09/15 01:28:43;;;;;;;10.82;5.82;;;13.30;99.90;;;;;;5014724;28;20037;-82
2022/09/15 01:34:41;;;;;;;11.65;5.10;;;13.30;99.90;;;;;;5008793;28;20049;-82
2022/09/15 01:37:16;;;;;;;10.20;4.72;;;13.40;99.90;;;;;;5013917;28;20041;-82
2022/09/15 01:39:45;;;;;;;10.30;4.88;;;13.50;99.90;;;;;;5018098;28;20037;-82
2022/09/15 01:42:15;;;;;;;12.15;4.78;;;13.50;99.90;;;;;;5024432;28;20120;-82
2022/09/15 01:45:12;;;;;;;9.60;4.22;;;13.50;99.90;;;;;;5015116;28;20120;-83
2022/09/15 01:47:39;;;;;;;9.15;4.80;;;13.50;99.90;;;;;;5009351;28;20139;-82
2022/09/15 01:50:10;;;;;;;9.45;4.00;;;13.50;99.90;;;;;;4998359;28;20052;-82
2022/09/15 01:52:43;;;;;;;7.38;3.28;;;13.50;99.90;;;;;;5014844;28;20037;-82
2022/09/15 01:55:22;;;;;;;8.13;3.70;;;13.50;99.90;;;;;;5034348;28;20053;-82
2022/09/15 01:57:48;;;;;;;8.30;3.30;;;13.50;99.90;;;;;;5001662;28;20049;-83
2022/09/15 02:00:14;;;;;;;9.13;3.13;;;13.50;99.90;;;;;;5031019;28;20132;-82
2022/09/15 02:02:53;;;;;;;8.68;3.08;;;13.50;99.90;;;;;;5011265;28;20120;-82
2022/09/15 02:05:29;;;;;;;8.93;3.20;;;13.60;99.90;;;;;;5014848;28;20081;-82
2022/09/15 02:08:12;;;;;;;9.85;3.17;;;13.60;99.90;;;;;;5000379;28;20484;-83
2022/09/15 02:10:47;;;;;;;7.97;2.70;;;13.60;99.90;;;;;;5025605;28;20052;-82
2022/09/15 02:13:27;;;;;;;8.88;3.65;;;13.60;99.90;;;;;;5026088;28;20124;-82
2022/09/15 02:15:56;;;;;;;7.65;3.08;;;13.60;99.90;;;;;;5021784;28;20046;-82
2022/09/15 02:18:42;;;;;;;7.45;3.00;;;13.60;99.90;;;;;;5025312;28;20052;-82
2022/09/15 02:21:26;;;;;;;8.02;2.70;;;13.60;99.90;;;;;;5014399;28;20092;-82
2022/09/15 02:23:57;;;;;;;6.80;2.70;;;13.60;99.90;;;;;;5040214;28;20049;-82
2022/09/15 02:26:26;;;;;;;6.45;2.45;;;13.60;99.90;;;;;;5048076;28;20037;-82
2022/09/15 02:28:55;;;;;;;8.43;2.90;;;13.60;99.90;;;;;;5008411;28;20067;-82
2022/09/15 02:31:23;;;;;;;7.68;2.60;;;13.70;99.90;;;;;;5017768;28;20400;-82
2022/09/15 02:34:10;;;;;;;6.80;2.42;;;13.70;99.90;;;;;;5021626;28;20084;-82
2022/09/15 02:36:38;;;;;;;8.18;2.85;;;13.70;99.90;;;;;;5025529;28;20045;-81
2022/09/15 02:39:08;;;;;;;6.00;2.30;;;13.70;99.90;;;;;;5017645;28;20058;-83
2022/09/15 02:41:39;;;;;;;5.93;2.22;;;13.70;99.90;;;;;;5017477;28;20431;-83
2022/09/15 02:44:06;;;;;;;9.13;2.80;;;13.60;99.90;;;;;;5017488;28;20045;-82
2022/09/15 02:46:32;;;;;;;10.02;3.08;;;13.70;99.90;;;;;;5017364;28;20124;-82
2022/09/15 02:48:58;;;;;;;9.75;3.15;;;13.70;99.90;;;;;;5017240;28;20531;-82
2022/09/15 02:51:24;;;;;;;6.93;2.38;;;13.70;99.90;;;;;;5017332;28;20485;-82
2022/09/15 02:53:49;;;;;;;8.95;2.88;;;13.70;99.90;;;;;;5016487;28;20500;-82
2022/09/15 02:56:16;;;;;;;9.75;3.00;;;13.70;99.90;;;;;;5032250;28;20037;-82
2022/09/15 02:58:42;;;;;;;9.95;2.88;;;13.70;99.90;;;;;;5017330;28;20040;-82
2022/09/15 03:01:14;;;;;;;10.45;2.70;;;13.70;99.90;;;;;;5018035;28;20049;-82
2022/09/15 03:03:41;;;;;;;7.13;2.22;;;13.70;99.90;;;;;;5017048;28;20052;-82
2022/09/15 03:06:16;;;;;;;12.70;2.20;;;13.70;99.90;;;;;;5014178;28;20050;-82
2022/09/15 03:08:50;;;;;;;9.85;2.20;;;13.70;99.90;;;;;;5016360;28;20396;-82
2022/09/15 03:11:18;;;;;;;8.43;2.00;;;13.80;99.90;;;;;;4989074;28;20412;-82
2022/09/15 03:13:44;;;;;;;8.82;1.95;;;13.80;99.90;;;;;;5016798;28;20041;-82
2022/09/15 03:16:11;;;;;;;7.40;1.85;;;13.80;99.90;;;;;;5016208;28;20562;-82
2022/09/15 03:18:38;;;;;;;7.63;1.92;;;13.80;99.90;;;;;;5017011;28;20080;-82
2022/09/15 03:21:07;;;;;;;7.35;1.90;;;13.80;99.90;;;;;;5002936;28;20037;-82
2022/09/15 03:23:32;;;;;;;10.45;2.10;;;13.80;99.90;;;;;;5015882;28;20049;-82
2022/09/15 03:25:58;;;;;;;7.30;1.98;;;13.80;99.90;;;;;;4984271;28;20497;-82
2022/09/15 03:28:25;;;;;;;8.57;2.08;;;13.80;99.90;;;;;;5016997;28;20041;-82
2022/09/15 03:30:52;;;;;;;7.22;1.65;;;13.80;99.90;;;;;;5016928;28;20048;-82
2022/09/15 03:33:18;;;;;;;11.18;2.20;;;13.80;99.90;;;;;;5011400;28;20030;-82
2022/09/15 03:35:47;;;;;;;8.55;2.10;;;13.80;99.90;;;;;;5008618;28;20033;-82
2022/09/15 03:38:14;;;;;;;7.97;2.08;;;13.80;99.90;;;;;;5030582;28;20484;-82
2022/09/15 03:40:43;;;;;;;10.73;2.00;;;13.80;99.90;;;;;;5033343;28;20076;-82
2022/09/15 03:43:10;;;;;;;8.13;1.95;;;13.80;99.90;;;;;;5033175;28;20041;-82
2022/09/15 03:45:37;;;;;;;8.80;1.90;;;13.80;99.90;;;;;;5044176;28;20120;-81
2022/09/15 03:48:06;;;;;;;7.65;1.85;;;13.80;99.90;;;;;;5028006;28;20045;-81
2022/09/15 03:50:32;;;;;;;7.65;1.85;;;13.80;99.90;;;;;;5033688;28;20041;-81
2022/09/15 03:52:59;;;;;;;8.13;1.70;;;13.80;99.90;;;;;;5022263;28;20042;-81
2022/09/15 03:55:25;;;;;;;6.68;1.75;;;13.80;99.90;;;;;;5032570;28;20038;-81
2022/09/15 03:57:51;;;;;;;7.35;1.88;;;13.80;99.90;;;;;;5041279;28;20044;-78
2022/09/15 04:00:17;;;;;;;8.18;2.00;;;13.80;99.90;;;;;;5035184;28;20053;-81
2022/09/15 04:02:43;;;;;;;7.93;1.80;;;13.80;99.90;;;;;;5049337;28;20093;-82
2022/09/15 04:05:09;;;;;;;8.20;1.80;;;13.70;99.90;;;;;;5038153;28;20033;-80
2022/09/15 04:07:35;;;;;;;9.40;2.03;;;13.70;99.90;;;;;;5038929;28;20105;-82
2022/09/15 04:10:01;;;;;;;7.65;1.80;;;13.80;99.90;;;;;;5040108;28;20032;-81
2022/09/15 04:12:28;;;;;;;6.85;1.60;;;13.80;99.90;;;;;;5033645;28;20026;-80
2022/09/15 04:14:54;;;;;;;7.00;1.60;;;13.80;99.90;;;;;;5025525;28;20081;-82
2022/09/15 04:17:20;;;;;;;7.88;1.60;;;13.70;99.90;;;;;;5017420;28;20044;-81
2022/09/15 04:19:46;;;;;;;8.57;1.60;;;13.70;99.90;;;;;;5034290;28;20038;-82
2022/09/15 04:22:12;;;;;;;6.85;1.77;;;13.70;99.90;;;;;;5032526;28;20043;-82
2022/09/15 04:24:37;;;;;;;7.93;1.65;;;13.70;99.90;;;;;;5026692;28;20045;-82
2022/09/15 04:27:03;;;;;;;8.80;1.85;;;13.70;99.90;;;;;;5026107;28;20124;-82
2022/09/15 04:29:29;;;;;;;6.70;1.77;;;13.70;99.90;;;;;;5032315;28;20044;-82
2022/09/15 04:31:54;;;;;;;8.60;1.70;;;13.70;99.90;;;;;;5029536;28;20105;-82
2022/09/15 04:34:20;;;;;;;7.70;1.73;;;13.70;99.90;;;;;;5027921;28;20041;-81
2022/09/15 04:36:46;;;;;;;6.13;1.60;;;13.70;99.90;;;;;;5028174;28;20072;-82
2022/09/15 04:39:12;;;;;;;8.23;1.88;;;13.70;99.90;;;;;;5028824;28;20037;-82
2022/09/15 04:41:38;;;;;;;6.50;1.90;;;13.70;99.90;;;;;;5027460;28;20045;-82
2022/09/15 04:44:04;;;;;;;8.38;1.80;;;13.60;99.90;;;;;;5027953;28;20045;-82
2022/09/15 04:46:29;;;;;;;10.50;2.03;;;13.60;99.90;;;;;;5004146;28;20037;-82
2022/09/15 04:48:56;;;;;;;7.18;1.80;;;13.60;99.90;;;;;;5017992;28;20048;-82
2022/09/15 04:51:22;;;;;;;7.03;1.73;;;13.50;99.90;;;;;;5017603;28;20148;-82
2022/09/15 04:53:49;;;;;;;6.80;1.60;;;13.50;99.90;;;;;;5016787;28;20049;-82
2022/09/15 04:56:24;;;;;;;8.40;1.50;;;13.50;99.90;;;;;;5019196;28;20557;-82
2022/09/15 04:58:58;;;;;;;6.45;1.50;;;13.50;99.90;;;;;;5016770;28;20522;-82
2022/09/15 05:01:26;;;;;;;11.02;1.83;;;13.50;99.90;;;;;;5029398;28;20098;-82
2022/09/15 05:03:52;;;;;;;10.43;1.83;;;13.50;99.90;;;;;;5021354;28;20389;-82
2022/09/15 05:06:21;;;;;;;6.78;1.80;;;13.50;99.90;;;;;;5009397;28;20123;-82
2022/09/15 05:08:48;;;;;;;6.78;1.77;;;13.50;99.90;;;;;;5023047;28;20171;-83
2022/09/15 05:11:14;;;;;;;9.48;1.98;;;13.40;99.90;;;;;;4995974;28;20042;-81
2022/09/15 05:13:40;;;;;;;7.07;1.77;;;13.40;99.90;;;;;;5020943;28;20479;-82
2022/09/15 05:16:11;;;;;;;9.57;1.90;;;13.30;99.90;;;;;;4998667;28;20059;-82
2022/09/15 05:18:38;;;;;;;6.93;1.60;;;13.30;99.90;;;;;;5015041;28;20420;-82
2022/09/15 05:21:05;;;;;;;8.35;1.67;;;13.30;99.90;;;;;;5031243;28;20033;-82
2022/09/15 05:23:32;;;;;;;10.43;1.92;;;13.30;99.90;;;;;;5015995;28;20427;-82
2022/09/15 05:26:00;;;;;;;7.82;1.90;;;13.30;99.90;;;;;;5012965;28;20038;-82
2022/09/15 05:28:26;;;;;;;8.65;1.92;;;13.30;99.90;;;;;;5035267;28;20176;-82
2022/09/15 05:30:53;;;;;;;7.72;2.05;;;13.30;99.90;;;;;;5018951;28;20049;-82
2022/09/15 05:33:20;;;;;;;9.07;1.90;;;13.30;99.90;;;;;;5018947;28;20042;-83
2022/09/15 05:36:06;;;;;;;9.80;1.90;;;13.40;99.90;;;;;;5014519;28;20034;-82
2022/09/15 05:38:32;;;;;;;6.35;1.88;;;13.30;99.90;;;;;;5034497;28;20127;-81
2022/09/15 05:41:09;;;;;;;9.15;2.03;;;13.40;99.90;;;;;;5002183;28;20052;-80
2022/09/15 05:43:37;;;;;;;7.35;1.98;;;13.30;99.90;;;;;;4998264;28;20041;-80
2022/09/15 05:46:04;;;;;;;10.38;2.20;;;13.40;99.90;;;;;;5013366;28;20041;-80
2022/09/15 05:48:30;;;;;;;7.82;2.00;;;13.40;99.90;;;;;;5010114;28;20048;-80
2022/09/15 05:50:57;;;;;;;6.03;1.85;;;13.50;99.90;;;;;;5013326;28;20044;-80
2022/09/15 05:53:23;;;;;;;5.70;1.60;;;13.50;99.90;;;;;;5013264;28;20050;-80
2022/09/15 05:55:54;;;;;;;7.32;1.73;;;13.50;99.90;;;;;;5014244;28;20045;-81
2022/09/15 05:58:19;;;;;;;8.25;1.80;;;13.50;99.90;;;;;;5008161;28;20037;-78
2022/09/15 06:00:45;;;;;;;8.07;1.83;;;13.50;99.90;;;;;;4997363;28;20067;-80
2022/09/15 06:03:15;;;;;;;7.03;1.80;;;13.60;99.90;;;;;;5016145;28;20043;-79
2022/09/15 06:05:42;;;;;;;8.07;1.80;;;13.70;99.90;;;;;;5016307;28;20088;-79
2022/09/15 06:08:08;;;;;;;6.40;1.70;;;13.70;99.90;;;;;;5014745;28;20064;-79
2022/09/15 06:10:34;;;;;;;8.73;2.00;;;13.70;99.90;;;;;;5017239;28;20041;-81
2022/09/15 06:12:59;;;;;;;8.65;1.80;;;13.70;99.90;;;;;;5016834;28;20041;-80
2022/09/15 06:15:25;;;;;;;9.00;1.83;;;13.70;99.90;;;;;;5016931;28;20097;-80
2022/09/15 06:17:51;;;;;;;9.20;1.80;;;13.70;99.90;;;;;;4986934;28;20546;-80
2022/09/15 06:20:17;;;;;;;9.52;1.88;;;13.70;99.90;;;;;;5017193;28;20038;-81
2022/09/15 06:22:44;;;;;;;9.82;1.98;;;13.90;99.90;;;;;;5015766;28;20396;-80
2022/09/15 06:25:12;;;;;;;8.73;1.70;;;14.00;99.90;;;;;;5015713;28;20038;-80
2022/09/15 06:27:38;;;;;;;7.90;1.80;;;14.20;99.90;;;;;;5015979;28;20034;-80
2022/09/15 06:30:05;;;;;;;7.90;1.65;;;14.70;99.90;;;;;;5017271;28;20033;-81
2022/09/15 06:32:31;;;;;;;9.52;1.90;;;15.10;99.90;;;;;;5018711;28;20412;-81
2022/09/15 06:34:57;;;;;;;8.95;1.70;;;15.70;99.90;;;;;;5016816;28;20033;-81
2022/09/15 06:37:22;;;;;;;7.78;1.50;;;16.00;99.90;;;;;;4999516;28;20175;-79
2022/09/15 06:39:48;;;;;;;9.50;1.88;;;16.40;99.90;;;;;;5003002;28;20297;-79
2022/09/15 06:42:14;;;;;;;8.48;1.60;;;16.40;99.90;;;;;;5018689;28;20045;-81
2022/09/15 06:44:40;;;;;;;9.13;1.85;;;16.30;99.90;;;;;;5006517;28;20047;-80
2022/09/15 06:47:06;;;;;;;8.20;1.80;;;16.20;99.90;;;;;;5018258;28;20124;-80
2022/09/15 06:49:32;;;;;;;6.93;1.60;;;16.10;99.90;;;;;;5016363;28;20044;-80
2022/09/15 06:52:00;;;;;;;7.85;1.60;;;16.00;99.90;;;;;;5014703;28;20038;-80
2022/09/15 06:54:26;;;;;;;10.65;2.00;;;15.90;99.90;;;;;;5016952;28;20037;-81
2022/09/15 06:56:52;;;;;;;8.38;1.70;;;15.80;99.90;;;;;;5004969;28;20038;-80
2022/09/15 06:59:17;;;;;;;8.40;1.70;;;15.80;99.90;;;;;;5016680;28;20044;-79
2022/09/15 07:01:43;;;;;;;10.45;1.95;;;15.70;99.90;;;;;;5001788;28;20049;-78
2022/09/15 07:04:09;;;;;;;8.57;1.90;;;15.60;99.90;;;;;;5016562;28;20128;-81
2022/09/15 07:06:36;;;;;;;6.88;1.60;;;15.80;99.90;;;;;;5031985;28;20052;-80
2022/09/15 07:09:03;;;;;;;8.63;1.70;;;16.10;99.90;;;;;;5015937;28;20041;-81
2022/09/15 07:11:30;;;;;;;9.63;1.88;;;16.50;99.90;;;;;;5016366;28;20470;-81
2022/09/15 07:13:56;;;;;;;8.18;1.95;;;16.60;99.90;;;;;;5017219;28;20112;-81
2022/09/15 07:16:24;;;;;;;6.78;1.77;;;16.60;99.90;;;;;;5016246;28;20080;-81
2022/09/15 07:18:50;;;;;;;9.07;1.80;;;16.60;99.90;;;;;;5015728;28;20049;-81
2022/09/15 07:21:19;;;;;;;9.15;1.55;;;16.60;99.90;;;;;;5000831;28;20072;-81
2022/09/15 07:23:46;;;;;;;9.88;1.63;;;16.60;99.90;;;;;;5011330;28;20485;-82
2022/09/15 07:26:18;;;;;;;8.25;1.90;;;16.50;99.90;;;;;;5013002;28;20048;-81
2022/09/15 07:28:46;;;;;;;;;;;16.50;99.90;;;;;;5017048;28;20061;-82
2022/09/15 07:31:14;;;;;;;9.10;1.60;;;16.40;99.90;;;;;;5031942;28;19932;-80
2022/09/15 07:33:40;;;;;;;8.50;1.60;;;16.40;99.90;;;;;;5014831;28;20040;-79
2022/09/15 07:36:07;;;;;;;8.05;1.58;;;16.40;99.90;;;;;;5013566;28;20042;-81
2022/09/15 07:38:46;;;;;;;6.13;1.42;;;16.40;99.90;;;;;;4967201;28;20048;-81
2022/09/15 07:41:15;;;;;;;9.43;1.70;;;16.40;99.90;;;;;;5017134;28;20045;-79
2022/09/15 07:43:46;;;;;;;6.28;1.40;;;16.40;99.90;;;;;;5000774;28;20056;-81
2022/09/15 07:46:12;;;;;;;12.63;1.70;;;16.40;99.90;;;;;;5006326;28;20049;-79
2022/09/15 07:48:37;;;;;;;7.40;1.50;;;16.50;99.90;;;;;;5021979;28;20250;-81
2022/09/15 07:51:03;;;;;;;8.77;1.65;;;16.50;99.90;;;;;;5018927;28;20049;-80
2022/09/15 07:53:30;;;;;;;7.95;1.55;;;16.50;99.90;;;;;;5021885;28;20119;-81
2022/09/15 07:55:56;;;;;;;8.27;1.55;;;16.40;99.90;;;;;;5022556;28;20123;-81
2022/09/15 07:58:22;;;;;;;7.60;1.50;;;16.40;99.90;;;;;;5017544;28;20033;-78
2022/09/15 08:00:48;;;;;;;8.07;1.63;;;16.40;99.90;;;;;;5011910;28;20052;-79
2022/09/15 08:03:15;;;;;;;7.85;1.60;;;16.50;99.90;;;;;;5015016;28;20124;-78
2022/09/15 08:05:41;;;;;;;7.28;1.50;;;16.50;99.90;;;;;;5014061;28;20037;-79
2022/09/15 08:08:07;;;;;;;9.38;1.65;;;16.60;99.90;;;;;;5014483;28;20551;-78
2022/09/15 08:10:33;;;;;;;8.23;1.50;;;16.70;99.90;;;;;;5022833;28;20041;-78
2022/09/15 08:13:00;;;;;;;7.68;1.50;;;16.90;99.90;;;;;;5020905;28;20050;-78
2022/09/15 08:15:25;;;;;;;7.32;1.50;;;17.00;99.90;;;;;;5015441;28;20050;-77
2022/09/15 08:17:52;;;;;;;6.50;1.33;;;17.10;99.90;;;;;;5019478;28;20044;-78
2022/09/15 08:20:18;;;;;;;9.18;1.65;;;17.20;99.90;;;;;;5016211;28;20121;-78
2022/09/15 08:22:44;;;;;;;4.85;1.20;;;17.40;99.90;;;;;;5014683;28;20485;-77
2022/09/15 08:25:13;;;;;;;8.77;1.40;;;17.40;99.90;;;;;;5014663;28;20095;-78
2022/09/15 08:27:39;;;;;;;7.05;1.25;;;17.50;99.90;;;;;;5004727;28;20056;-77
2022/09/15 08:30:06;;;;;;;7.80;1.35;;;17.70;99.90;;;;;;5002309;28;20103;-78
2022/09/15 08:32:32;;;;;;;5.68;1.40;;;17.80;99.90;;;;;;5019709;28;20545;-78
2022/09/15 08:34:57;;;;;;;5.10;1.17;;;17.80;99.90;;;;;;5017785;28;20125;-78
2022/09/15 08:37:23;;;;;;;7.93;1.40;;;17.80;99.90;;;;;;5018081;28;20397;-78
2022/09/15 08:39:49;;;;;;;7.68;1.30;;;17.60;99.90;;;;;;5012384;28;20095;-79
2022/09/15 08:42:18;;;;;;;5.05;1.05;;;17.60;99.90;;;;;;5014241;28;20037;-82
2022/09/15 08:45:06;;;;;;;7.88;1.38;;;17.60;99.90;;;;;;4998230;28;20053;-82
2022/09/15 08:47:40;;;;;;;6.40;1.55;;;17.80;99.90;;;;;;4991765;28;20389;-80
2022/09/15 08:50:19;;;;;;;6.57;1.25;;;18.10;99.90;;;;;;5005328;28;20033;-82
2022/09/15 08:52:49;;;;;;;5.07;1.70;;;18.30;99.90;;;;;;5013451;28;20479;-81
2022/09/15 08:55:42;;;;;;;8.15;1.60;;;18.50;99.90;;;;;;5013408;28;20037;-82
2022/09/15 08:58:19;;;;;;;7.25;1.33;;;18.70;99.60;;;;;;5026949;28;20369;-82
2022/09/15 09:00:50;;;;;;;5.15;1.20;;;18.90;98.60;;;;;;5020707;28;20041;-82
2022/09/15 09:03:51;;;;;;;6.38;1.30;;;18.90;98.30;;;;;;5027061;28;20083;-81
2022/09/15 09:06:36;;;;;;;7.35;1.25;;;19.00;98.60;;;;;;5002535;28;20045;-81
2022/09/15 09:09:30;;;;;;;5.65;1.08;;;19.10;97.30;;;;;;5013971;28;20037;-81
2022/09/15 09:12:07;;;;;;;6.40;1.45;;;19.20;96.10;;;;;;5013636;28;20049;-81
2022/09/15 09:14:45;;;;;;;9.25;1.50;;;19.00;95.90;;;;;;5026077;28;20038;-81
2022/09/15 09:17:26;;;;;;;7.50;1.45;;;19.10;95.60;;;;;;5014087;28;20049;-81
2022/09/15 09:20:28;;;;;;;8.43;1.50;;;19.30;96.20;;;;;;5025462;28;20064;-81
2022/09/15 09:22:54;;;;;;;7.72;1.60;;;19.40;95.10;;;;;;5030424;28;20103;-81
2022/09/15 09:25:21;;;;;;;8.55;1.55;;;19.50;94.60;;;;;;5015418;28;20045;-82
2022/09/15 09:27:48;;;;;;;8.80;1.50;;;19.60;94.60;;;;;;5031280;28;20038;-82
2022/09/15 09:30:20;;;;;;;7.85;1.40;;;19.60;93.20;;;;;;5015164;28;20118;-82
2022/09/15 09:32:50;;;;;;;5.80;1.40;;;19.80;94.20;;;;;;5032967;28;20114;-82
2022/09/15 09:35:23;;;;;;;8.13;1.55;;;20.10;93.30;;;;;;5002443;28;20048;-81
2022/09/15 09:37:51;;;;;;;7.72;1.35;;;20.30;93.60;;;;;;5000164;28;20491;-82
2022/09/15 09:40:18;;;;;;;6.63;1.33;;;20.30;92.50;;;;;;5022098;28;20049;-82
2022/09/15 09:42:44;;;;;;;8.93;1.40;;;20.10;92.50;;;;;;5018227;28;20040;-81
2022/09/15 09:45:15;;;;;;;7.35;1.42;;;20.00;91.20;;;;;;5024319;28;20037;-81
2022/09/15 09:47:41;;;;;;;7.50;1.40;;;19.90;91.30;;;;;;5019638;28;20041;-81
2022/09/15 09:50:35;;;;;;;7.05;1.30;;;19.80;91.40;;;;;;5035187;28;20038;-82
2022/09/15 09:53:16;;;;;;;6.30;1.60;;;19.70;92.00;;;;;;5008542;28;20057;-81
2022/09/15 09:55:44;;;;;;;5.88;1.30;;;19.50;91.40;;;;;;5021518;28;20515;-81
2022/09/15 09:58:19;;;;;;;8.15;1.38;;;19.40;91.60;;;;;;5002071;28;20053;-82
2022/09/15 10:00:46;;;;;;;5.47;1.23;;;19.20;92.10;;;;;;5021452;28;20036;-82
2022/09/15 10:03:18;;;;;;;6.80;1.35;;;19.20;92.00;;;;;;5017830;28;20506;-82
2022/09/15 10:05:44;;;;;;;7.35;1.45;;;19.20;92.70;;;;;;5034718;28;20030;-82
2022/09/15 10:08:18;;;;;;;7.45;1.42;;;19.30;92.90;;;;;;4997700;28;20069;-82
2022/09/15 10:10:53;;;;;;;6.53;1.33;;;19.20;92.10;;;;;;5019852;28;20503;-81
2022/09/15 10:13:20;;;;;;;7.97;1.42;;;19.20;91.50;;;;;;5001922;28;20183;-81
2022/09/15 10:15:54;;;;;;;5.70;1.25;;;19.30;92.70;;;;;;5017938;28;20436;-81
2022/09/15 10:18:30;;;;;;;7.53;1.40;;;19.20;91.10;;;;;;5017757;28;20041;-81
2022/09/15 10:20:56;;;;;;;4.97;1.25;;;19.20;91.00;;;;;;5017735;28;20045;-81
2022/09/15 10:23:28;;;;;;;7.32;1.45;;;19.20;91.30;;;;;;5017254;28;20041;-80
2022/09/15 10:26:15;;;;;;;6.97;1.40;;;19.20;91.90;;;;;;5017691;28;20492;-81
2022/09/15 10:28:42;;;;;;;8.02;1.40;;;19.20;91.10;;;;;;5001231;28;20132;-81
2022/09/15 10:31:24;;;;;;;8.93;1.38;;;19.40;90.30;;;;;;5002763;28;20050;-81
2022/09/15 10:33:49;;;;;;;5.55;1.42;;;19.10;90.60;;;;;;5018153;28;20373;-81
2022/09/15 10:36:21;;;;;;;9.73;1.70;;;18.90;92.10;;;;;;5004129;28;20117;-80
2022/09/15 10:39:16;;;;;;;8.05;1.40;;;18.60;95.30;;;;;;5018626;28;20397;-81
2022/09/15 10:42:03;;;;;;;9.02;1.50;;;18.30;97.00;;;;;;5018801;28;20041;-81
2022/09/15 10:44:56;;;;;;;6.32;1.30;;;18.10;99.90;;;;;;5016678;28;20272;-81
2022/09/15 10:47:47;;;;;;;7.47;1.17;;;17.90;99.90;;;;;;5017746;28;20399;-80
2022/09/15 10:50:25;;;;;;;6.38;1.38;;;18.10;99.90;;;;;;5034056;28;20048;-81
2022/09/15 10:53:33;;;;;;;6.80;1.33;;;18.30;99.90;;;;;;5032785;28;20038;-81
2022/09/15 10:56:14;;;;;;;5.07;1.10;;;18.50;99.90;;;;;;4991213;28;20045;-80
2022/09/15 10:59:03;;;;;;;6.13;1.10;;;18.70;99.10;;;;;;5003043;28;20522;-81
2022/09/15 11:01:29;;;;;;;6.68;1.30;;;18.90;99.90;;;;;;5030672;28;20049;-81
2022/09/15 11:04:12;;;;;;;5.45;1.13;;;19.00;97.60;;;;;;5022962;28;20044;-80
2022/09/15 11:06:53;;;;;;;5.95;1.20;;;18.70;96.00;;;;;;5016331;28;20045;-80
2022/09/15 11:09:27;;;;;;;6.70;1.20;;;18.30;95.70;;;;;;5004543;28;20130;-81
2022/09/15 11:12:16;;;;;;;6.35;1.30;;;18.10;97.10;;;;;;5002718;28;20046;-77
2022/09/15 11:15:02;;;;;;;7.07;1.30;;;17.90;97.50;;;;;;5006471;28;20037;-81
2022/09/15 11:17:57;;;;;;;6.18;1.35;;;17.80;98.00;;;;;;5016674;28;20049;-80
2022/09/15 11:20:29;;;;;;;8.20;1.30;;;17.80;98.00;;;;;;5000603;28;20041;-80
2022/09/15 11:23:01;;;;;;;6.55;1.10;;;17.80;98.20;;;;;;5003202;28;20043;-81
2022/09/15 11:25:30;;;;;;;6.97;1.20;;;17.60;98.40;;;;;;5033504;28;20049;-80
2022/09/15 11:28:03;;;;;;;6.22;1.10;;;17.70;98.60;;;;;;4999872;28;20559;-80
2022/09/15 11:30:35;;;;;;;6.80;1.20;;;17.70;98.70;;;;;;5010248;28;20049;-81
2022/09/15 11:33:10;;;;;;;10.20;1.45;;;17.80;99.10;;;;;;5016751;28;20511;-81
2022/09/15 11:35:45;;;;;;;6.43;1.23;;;17.80;99.30;;;;;;5000270;28;20037;-81
2022/09/15 11:38:14;;;;;;;5.85;1.20;;;17.90;99.50;;;;;;5020274;28;20072;-81
2022/09/15 11:41:20;;;;;;;6.35;1.17;;;18.00;99.10;;;;;;5032988;28;20049;-80
2022/09/15 11:44:09;;;;;;;6.03;1.17;;;18.30;99.40;;;;;;4979704;28;20392;-81
2022/09/15 11:47:01;;;;;;;6.03;1.13;;;18.40;98.90;;;;;;5010152;28;20488;-81
2022/09/15 11:49:55;;;;;;;5.95;1.10;;;18.60;97.40;;;;;;5016360;28;20041;-80
2022/09/15 11:52:45;;;;;;;7.57;1.30;;;18.70;97.70;;;;;;5006389;28;20149;-81
2022/09/15 11:55:39;;;;;;;8.38;1.20;;;18.80;97.50;;;;;;4998805;28;20029;-81
2022/09/15 11:58:18;;;;;;;6.78;1.50;;;18.60;97.40;;;;;;5015906;28;20041;-81
2022/09/15 12:00:51;;;;;;;6.97;1.20;;;18.30;97.60;;;;;;5025173;28;20056;-80
2022/09/15 12:03:47;;;;;;;6.72;1.15;;;18.30;97.70;;;;;;5018183;28;20037;-81
2022/09/15 12:06:42;;;;;;;5.32;1.20;;;18.20;98.10;;;;;;4993259;28;20516;-81
2022/09/15 12:09:14;;;;;;;5.45;1.15;;;18.20;97.30;;;;;;4999991;28;20113;-81
2022/09/15 12:11:46;;;;;;;5.78;1.20;;;18.30;97.80;;;;;;5015973;28;20508;-81
2022/09/15 12:14:16;;;;;;;7.93;1.38;;;18.30;97.60;;;;;;5015962;28;20160;-81
2022/09/15 12:16:42;;;;;;;3.33;1.00;;;18.40;98.00;;;;;;5015310;28;20532;-81
2022/09/15 12:19:24;;;;;;;5.15;1.20;;;18.70;98.10;;;;;;5032358;28;20034;-81
2022/09/15 12:21:49;;;;;;;4.78;1.00;;;19.00;96.50;;;;;;5014809;28;20052;-81
2022/09/15 12:24:42;;;;;;;6.63;1.20;;;19.20;96.10;;;;;;5015378;28;20042;-81
2022/09/15 12:27:16;;;;;;;4.53;1.10;;;19.10;93.40;;;;;;5015785;28;20516;-81
2022/09/15 12:29:55;;;;;;;5.88;1.30;;;19.00;94.80;;;;;;5008072;28;20054;-81
2022/09/15 12:32:26;;;;;;;4.30;1.05;;;19.10;94.70;;;;;;5019058;28;20045;-80
2022/09/15 12:34:58;;;;;;;5.20;1.27;;;19.10;94.90;;;;;;5015405;28;20041;-80
2022/09/15 12:37:45;;;;;;;5.93;1.17;;;19.20;95.10;;;;;;5021289;28;20132;-78
2022/09/15 12:40:40;;;;;;;5.22;1.25;;;19.20;95.20;;;;;;4997754;28;20196;-81
2022/09/15 12:43:12;;;;;;;5.07;1.10;;;19.30;95.00;;;;;;5019529;28;20117;-80
2022/09/15 12:45:41;;;;;;;5.18;1.20;;;19.40;94.80;;;;;;5007798;28;20052;-81
2022/09/15 12:48:18;;;;;;;3.78;1.00;;;19.40;94.00;;;;;;5016378;28;20041;-81
2022/09/15 12:50:53;;;;;;;6.22;1.00;;;19.40;93.30;;;;;;5013024;28;20037;-81
2022/09/15 12:53:26;;;;;;;4.35;0.82;;;19.50;93.20;;;;;;4999537;28;20033;-81
2022/09/15 12:56:05;;;;;;;4.30;1.00;;;19.60;91.50;;;;;;5013328;28;20095;-80
2022/09/15 12:58:39;;;;;;;3.92;1.00;;;19.60;92.10;;;;;;5025864;28;20112;-81
2022/09/15 13:01:28;;;;;;;5.80;1.08;;;19.60;91.10;;;;;;5031026;28;20045;-81
2022/09/15 13:03:57;;;;;;;4.57;1.10;;;19.40;90.50;;;;;;5009695;28;20079;-80
2022/09/15 13:06:25;;;;;;;3.90;0.90;;;19.30;90.90;;;;;;5014988;28;20485;-80
2022/09/15 13:09:04;;;;;;;6.82;0.90;;;19.20;91.10;;;;;;4997636;28;20152;-81
2022/09/15 13:11:40;;;;;;;5.63;1.00;;;19.00;91.40;;;;;;5018006;28;20157;-80
2022/09/15 13:14:39;;;;;;;4.50;0.85;;;18.90;91.70;;;;;;5014606;28;20091;-81